createdAt,value
2022-09-01T00:00:09.641Z,101631.53
2022-09-01T00:02:59.122Z,101625.31
2022-09-01T00:05:28.269Z,101631.59
2022-09-01T00:07:57.392Z,101624.53
2022-09-01T00:10:26.687Z,101622.78
2022-09-01T00:12:57.079Z,101621.00
2022-09-01T00:15:30.584Z,101620.19
2022-09-01T00:17:59.603Z,101623.78
2022-09-01T00:20:29.026Z,101618.41
2022-09-01T00:22:58.215Z,101630.03
2022-09-01T00:25:27.970Z,101626.47
2022-09-01T00:28:00.296Z,101618.44
2022-09-01T00:30:30.721Z,101614.94
2022-09-01T00:32:59.990Z,101623.91
2022-09-01T00:35:29.523Z,101623.97
2022-09-01T00:37:58.473Z,101617.75
2022-09-01T00:40:31.397Z,101622.28
2022-09-01T00:43:01.216Z,101620.59
2022-09-01T00:45:32.369Z,101620.59
2022-09-01T00:48:01.488Z,101612.69
2022-09-01T00:50:30.770Z,101626.09
2022-09-01T00:53:00.879Z,101638.66
2022-09-01T00:55:32.825Z,101646.75
2022-09-01T00:58:03.665Z,101636.09
2022-09-01T01:00:41.935Z,101651.13
2022-09-01T01:03:12.850Z,101637.69
2022-09-01T01:05:54.383Z,101639.34
2022-09-01T01:08:31.674Z,101631.25
2022-09-01T01:11:01.248Z,101646.28
2022-09-01T01:13:32.132Z,101644.38
2022-09-01T01:16:03.358Z,101637.91
2022-09-01T01:18:33.028Z,101637.72
2022-09-01T01:21:24.687Z,101639.31
2022-09-01T01:24:03.544Z,101637.31
2022-09-01T01:26:34.610Z,101623.78
2022-09-01T01:29:04.940Z,101627.09
2022-09-01T01:31:35.481Z,101621.59
2022-09-01T01:34:09.822Z,101626.78
2022-09-01T01:36:41.725Z,101618.50
2022-09-01T01:39:19.318Z,101611.19
2022-09-01T01:41:50.811Z,101614.59
2022-09-01T01:44:27.954Z,101611.88
2022-09-01T01:46:59.950Z,101599.22
2022-09-01T01:49:31.317Z,101608.03
2022-09-01T01:52:01.241Z,101607.88
2022-09-01T01:54:33.834Z,101597.97
2022-09-01T01:57:05.372Z,101605.94
2022-09-01T01:59:34.708Z,101607.63
2022-09-01T02:02:09.860Z,101610.19
2022-09-01T02:04:40.430Z,101610.09
2022-09-01T02:07:14.091Z,101601.97
2022-09-01T02:09:48.182Z,101610.84
2022-09-01T02:12:19.740Z,101597.28
2022-09-01T02:14:50.211Z,101603.47
2022-09-01T02:17:21.294Z,101601.63
2022-09-01T02:19:50.720Z,101596.16
2022-09-01T02:22:21.743Z,101586.25
2022-09-01T02:24:52.804Z,101592.44
2022-09-01T02:27:26.014Z,101591.50
2022-09-01T02:29:58.800Z,101587.88
2022-09-01T02:32:28.646Z,101583.34
2022-09-01T02:35:01.416Z,101589.59
2022-09-01T02:37:30.817Z,101590.47
2022-09-01T02:39:59.915Z,101585.97
2022-09-01T02:42:30.337Z,101578.78
2022-09-01T02:44:59.840Z,101582.38
2022-09-01T02:47:33.566Z,101585.94
2022-09-01T02:50:03.635Z,101582.31
2022-09-01T02:52:38.265Z,101583.13
2022-09-01T02:55:09.118Z,101576.84
2022-09-01T02:57:39.867Z,101577.66
2022-09-01T03:00:20.924Z,101574.97
2022-09-01T03:02:52.966Z,101573.16
2022-09-01T03:05:25.446Z,101571.34
2022-09-01T03:07:58.034Z,101585.63
2022-09-01T03:11:23.848Z,101577.53
2022-09-01T03:13:54.885Z,101581.16
2022-09-01T03:16:24.704Z,101578.47
2022-09-01T03:18:54.161Z,101581.16
2022-09-01T03:21:23.541Z,101582.88
2022-09-01T03:23:54.317Z,101574.84
2022-09-01T03:26:24.336Z,101579.34
2022-09-01T03:28:55.059Z,101580.22
2022-09-01T03:31:27.582Z,101579.22
2022-09-01T03:34:03.425Z,101581.03
2022-09-01T03:36:36.154Z,101583.72
2022-09-01T03:39:05.768Z,101577.53
2022-09-01T03:41:37.512Z,101579.28
2022-09-01T03:44:12.135Z,101583.63
2022-09-01T03:46:42.616Z,101576.31
2022-09-01T03:49:15.203Z,101575.41
2022-09-01T03:51:45.116Z,101580.75
2022-09-01T03:54:14.835Z,101578.97
2022-09-01T03:56:43.936Z,101572.66
2022-09-01T03:59:19.792Z,101574.41
2022-09-01T04:01:50.367Z,101575.28
2022-09-01T04:04:19.593Z,101572.50
2022-09-01T04:06:49.206Z,101576.03
2022-09-01T04:09:18.299Z,101574.22
2022-09-01T04:11:48.522Z,101578.53
2022-09-01T04:14:19.826Z,101583.78
2022-09-01T04:17:08.428Z,101578.38
2022-09-01T04:19:39.663Z,101572.00
2022-09-01T04:22:17.767Z,101576.44
2022-09-01T04:24:47.227Z,101582.56
2022-09-01T04:27:21.681Z,101585.22
2022-09-01T04:29:55.811Z,101577.97
2022-09-01T04:32:28.900Z,101584.16
2022-09-01T04:35:01.653Z,101585.84
2022-09-01T04:37:31.272Z,101581.22
2022-09-01T04:40:04.591Z,101583.84
2022-09-01T04:42:34.979Z,101578.44
2022-09-01T04:45:11.268Z,101584.63
2022-09-01T04:47:45.572Z,101581.88
2022-09-01T04:50:19.709Z,101580.88
2022-09-01T04:53:12.042Z,101576.34
2022-09-01T04:55:46.196Z,101580.66
2022-09-01T04:58:20.668Z,101582.34
2022-09-01T05:00:53.143Z,101583.97
2022-09-01T05:03:24.657Z,101580.31
2022-09-01T05:06:03.994Z,101581.94
2022-09-01T05:08:35.521Z,101574.69
2022-09-01T05:11:17.898Z,101583.56
2022-09-01T05:13:51.205Z,101578.84
2022-09-01T05:16:25.354Z,101582.25
2022-09-01T05:18:58.339Z,101592.06
2022-09-01T05:21:34.438Z,101586.56
2022-09-01T05:24:05.115Z,101591.81
2022-09-01T05:26:35.215Z,101593.19
2022-09-01T05:29:10.751Z,101595.56
2022-09-01T05:31:43.403Z,101589.09
2022-09-01T05:34:13.192Z,101595.94
2022-09-01T05:36:48.312Z,101599.31
2022-09-01T05:39:17.748Z,101599.06
2022-09-01T05:41:48.208Z,101596.13
2022-09-01T05:44:22.604Z,101593.97
2022-09-01T05:46:55.888Z,101600.78
2022-09-01T05:49:28.659Z,101594.19
2022-09-01T05:51:59.025Z,101593.94
2022-09-01T05:54:30.764Z,101596.44
2022-09-01T05:57:17.417Z,101598.84
2022-09-01T05:59:54.058Z,101600.47
2022-09-01T06:02:28.750Z,101601.97
2022-09-01T06:05:00.397Z,101594.47
2022-09-01T06:07:35.855Z,101590.63
2022-09-01T06:10:06.388Z,101592.16
2022-09-01T06:12:36.620Z,101582.06
2022-09-01T06:15:16.054Z,101581.88
2022-09-01T06:17:50.061Z,101586.09
2022-09-01T06:20:20.396Z,101583.13
2022-09-01T06:22:49.859Z,101589.03
2022-09-01T06:25:19.468Z,101591.28
2022-09-01T06:27:52.495Z,101594.63
2022-09-01T06:30:24.390Z,101592.44
2022-09-01T06:33:02.369Z,101584.81
2022-09-01T06:35:34.001Z,101589.69
2022-09-01T06:38:04.887Z,101594.66
2022-09-01T06:40:43.691Z,101594.91
2022-09-01T06:43:17.474Z,101586.31
2022-09-01T06:45:54.760Z,101592.97
2022-09-01T06:48:30.930Z,101598.72
2022-09-01T06:51:15.967Z,101599.13
2022-09-01T06:53:51.221Z,101595.09
2022-09-01T06:56:20.968Z,101599.19
2022-09-01T06:58:53.426Z,101597.94
2022-09-01T07:01:24.406Z,101598.47
2022-09-01T07:03:57.141Z,101601.75
2022-09-01T07:07:54.416Z,101601.44
2022-09-01T07:10:21.028Z,101601.88
2022-09-01T07:13:09.001Z,101604.41
2022-09-01T07:18:35.023Z,101604.16
2022-09-01T07:21:36.142Z,101598.72
2022-09-01T07:24:11.165Z,101606.81
2022-09-01T07:26:47.636Z,101604.13
2022-09-01T07:29:22.786Z,101611.34
2022-09-01T07:34:47.718Z,101609.66
2022-09-01T07:43:34.121Z,101611.72
2022-09-01T07:46:38.807Z,101618.97
2022-09-01T07:52:03.895Z,101622.25
2022-09-01T07:54:37.322Z,101625.41
2022-09-01T07:57:06.622Z,101631.41
2022-09-01T07:59:37.703Z,101626.81
2022-09-01T08:02:17.705Z,101629.22
2022-09-01T08:04:48.273Z,101635.06
2022-09-01T08:07:18.030Z,101632.97
2022-09-01T08:09:48.442Z,101639.81
2022-09-01T08:12:18.803Z,101640.44
2022-09-01T08:15:12.730Z,101641.09
2022-09-01T08:17:51.690Z,101640.16
2022-09-01T08:20:21.366Z,101636.47
2022-09-01T08:23:15.158Z,101640.94
2022-09-01T08:25:45.949Z,101645.31
2022-09-01T08:28:26.284Z,101637.09
2022-09-01T08:30:56.402Z,101639.56
2022-09-01T08:33:27.830Z,101640.19
2022-09-01T08:35:57.326Z,101646.13
2022-09-01T08:38:28.139Z,101641.34
2022-09-01T08:41:03.387Z,101643.63
2022-09-01T08:43:49.114Z,101642.31
2022-09-01T08:46:26.065Z,101631.06
2022-09-01T08:52:15.351Z,101635.41
2022-09-01T08:54:47.945Z,101635.94
2022-09-01T08:57:23.081Z,101632.78
2022-09-01T09:00:23.384Z,101637.88
2022-09-01T09:03:07.750Z,101625.72
2022-09-01T09:05:52.248Z,101630.72
2022-09-01T09:08:35.163Z,101640.13
2022-09-01T09:11:08.378Z,101636.84
2022-09-01T09:13:53.617Z,101643.56
2022-09-01T09:16:28.989Z,101647.78
2022-09-01T09:19:04.315Z,101637.59
2022-09-01T09:21:37.375Z,101643.72
2022-09-01T09:24:20.672Z,101636.19
2022-09-01T09:26:51.442Z,101630.47
2022-09-01T09:29:22.060Z,101630.09
2022-09-01T09:32:04.859Z,101622.47
2022-09-01T09:34:36.908Z,101626.63
2022-09-01T09:37:24.023Z,101630.63
2022-09-01T09:40:15.936Z,101635.75
2022-09-01T09:43:07.716Z,101634.47
2022-09-01T09:45:42.330Z,101652.94
2022-09-01T09:48:29.039Z,101648.91
2022-09-01T09:51:16.644Z,101650.28
2022-09-01T09:53:45.849Z,101663.53
2022-09-01T09:56:20.844Z,101665.09
2022-09-01T09:58:51.721Z,101663.22
2022-09-01T10:01:32.558Z,101657.91
2022-09-01T10:04:04.337Z,101656.38
2022-09-01T10:06:37.358Z,101656.66
2022-09-01T10:09:09.669Z,101650.66
2022-09-01T10:11:42.298Z,101657.13
2022-09-01T10:14:35.871Z,101658.19
2022-09-01T10:17:13.369Z,101663.81
2022-09-01T10:19:52.614Z,101676.59
2022-09-01T10:22:23.153Z,101685.88
2022-09-01T10:24:52.167Z,101686.94
2022-09-01T10:27:23.158Z,101677.19
2022-09-01T10:30:13.998Z,101679.13
2022-09-01T10:32:54.885Z,101684.44
2022-09-01T10:35:28.227Z,101688.03
2022-09-01T10:38:01.007Z,101680.66
2022-09-01T10:40:41.709Z,101671.56
2022-09-01T10:43:38.043Z,101676.09
2022-09-01T10:46:42.160Z,101686.09
2022-09-01T10:49:50.520Z,101683.28
2022-09-01T10:53:11.462Z,101684.16
2022-09-01T10:56:02.005Z,101684.16
2022-09-01T11:02:34.742Z,101686.09
2022-09-01T11:05:19.230Z,101678.91
2022-09-01T11:08:15.242Z,101678.19
2022-09-01T11:10:53.485Z,101681.88
2022-09-01T11:13:46.317Z,101676.66
2022-09-01T11:16:52.388Z,101679.53
2022-09-01T11:19:39.347Z,101668.59
2022-09-01T11:22:22.896Z,101664.16
2022-09-01T11:25:38.722Z,101660.56
2022-09-01T11:28:47.358Z,101662.31
2022-09-01T11:31:33.242Z,101654.94
2022-09-01T11:34:13.325Z,101659.28
2022-09-01T11:37:00.374Z,101657.41
2022-09-01T11:39:44.165Z,101657.22
2022-09-01T11:42:19.632Z,101657.09
2022-09-01T11:44:54.083Z,101653.34
2022-09-01T11:47:27.716Z,101669.44
2022-09-01T11:49:59.868Z,101666.63
2022-09-01T11:52:31.882Z,101668.38
2022-09-01T11:55:01.618Z,101669.16
2022-09-01T11:57:33.795Z,101668.28
2022-09-01T12:00:05.909Z,101659.38
2022-09-01T12:02:47.920Z,101675.63
2022-09-01T12:05:33.325Z,101664.69
2022-09-01T12:08:05.672Z,101663.63
2022-09-01T12:10:38.722Z,101665.19
2022-09-01T12:13:10.871Z,101659.34
2022-09-01T12:16:00.617Z,101660.72
2022-09-01T12:18:38.365Z,101668.28
2022-09-01T12:21:09.603Z,101663.25
2022-09-01T12:23:43.190Z,101668.28
2022-09-01T12:26:15.799Z,101671.59
2022-09-01T12:28:45.688Z,101666.81
2022-09-01T12:31:17.279Z,101668.47
2022-09-01T12:33:49.100Z,101665.53
2022-09-01T12:36:25.552Z,101663.41
2022-09-01T12:38:56.477Z,101664.78
2022-09-01T12:41:35.139Z,101663.31
2022-09-01T12:44:31.046Z,101660.88
2022-09-01T12:47:02.572Z,101660.38
2022-09-01T12:49:47.909Z,101666.16
2022-09-01T12:52:26.073Z,101668.47
2022-09-01T12:55:47.380Z,101667.41
2022-09-01T12:58:06.190Z,101664.56
2022-09-01T13:00:37.083Z,101670.00
2022-09-01T13:03:14.533Z,101666.31
2022-09-01T13:05:47.163Z,101667.19
2022-09-01T13:08:19.029Z,101667.00
2022-09-01T13:10:51.733Z,101664.03
2022-09-01T13:13:24.120Z,101671.13
2022-09-01T13:15:55.478Z,101666.38
2022-09-01T13:18:26.516Z,101662.47
2022-09-01T13:20:59.051Z,101664.19
2022-09-01T13:23:28.466Z,101660.28
2022-09-01T13:25:59.038Z,101662.06
2022-09-01T13:28:28.490Z,101663.78
2022-09-01T13:36:45.216Z,101659.25
2022-09-01T13:39:16.960Z,101660.00
2022-09-01T13:41:48.223Z,101664.13
2022-09-01T13:44:18.554Z,101663.50
2022-09-01T13:50:05.458Z,101678.44
2022-09-01T13:52:27.708Z,101678.56
2022-09-01T13:54:56.857Z,101665.88
2022-09-01T13:57:27.020Z,101665.16
2022-09-01T14:00:01.015Z,101670.72
2022-09-01T14:02:29.960Z,101673.31
2022-09-01T14:04:59.396Z,101677.22
2022-09-01T14:07:30.493Z,101681.22
2022-09-01T14:09:59.555Z,101679.00
2022-09-01T14:12:30.269Z,101691.16
2022-09-01T14:15:17.536Z,101689.75
2022-09-01T14:17:48.559Z,101689.47
2022-09-01T14:20:20.263Z,101689.88
2022-09-01T14:22:52.126Z,101703.09
2022-09-01T14:25:22.209Z,101703.34
2022-09-01T14:27:53.325Z,101693.91
2022-09-01T14:30:29.155Z,101695.69
2022-09-01T14:33:01.489Z,101690.47
2022-09-01T14:35:34.335Z,101697.31
2022-09-01T14:38:07.668Z,101686.44
2022-09-01T14:40:38.679Z,101681.03
2022-09-01T14:43:10.497Z,101687.66
2022-09-01T14:45:39.884Z,101684.44
2022-09-01T14:48:09.491Z,101682.91
2022-09-01T14:50:42.724Z,101669.22
2022-09-01T14:53:13.826Z,101685.78
2022-09-01T14:55:44.044Z,101678.31
2022-09-01T14:58:13.580Z,101684.19
2022-09-01T15:00:42.962Z,101686.47
2022-09-01T15:03:12.334Z,101692.13
2022-09-01T15:05:41.997Z,101689.91
2022-09-01T15:08:17.634Z,101691.97
2022-09-01T15:10:47.160Z,101689.03
2022-09-01T15:13:16.320Z,101686.25
2022-09-01T15:16:00.218Z,101689.03
2022-09-01T15:18:29.923Z,101683.19
2022-09-01T15:20:59.293Z,101685.59
2022-09-01T15:23:29.801Z,101683.47
2022-09-01T15:25:59.062Z,101692.06
2022-09-01T15:28:28.176Z,101679.84
2022-09-01T15:30:57.687Z,101677.66
2022-09-01T15:33:26.929Z,101689.25
2022-09-01T15:35:55.872Z,101679.63
2022-09-01T15:38:30.333Z,101682.63
2022-09-01T15:41:01.748Z,101680.47
2022-09-01T15:43:31.922Z,101678.88
2022-09-01T15:46:02.131Z,101679.63
2022-09-01T15:48:31.377Z,101675.94
2022-09-01T15:51:28.262Z,101671.13
2022-09-01T15:54:00.280Z,101669.78
2022-09-01T15:56:32.030Z,101678.78
2022-09-01T15:59:03.554Z,101677.84
2022-09-01T16:01:34.961Z,101678.63
2022-09-01T16:04:05.712Z,101675.09
2022-09-01T16:06:35.415Z,101677.16
2022-09-01T16:09:04.922Z,101672.31
2022-09-01T16:11:36.734Z,101674.56
2022-09-01T16:14:06.578Z,101671.59
2022-09-01T16:16:46.998Z,101678.41
2022-09-01T16:19:39.088Z,101672.41
2022-09-01T16:22:17.737Z,101671.44
2022-09-01T16:24:49.373Z,101660.63
2022-09-01T16:27:24.446Z,101662.16
2022-09-01T16:29:57.008Z,101655.28
2022-09-01T16:32:27.216Z,101662.66
2022-09-01T16:34:56.283Z,101659.56
2022-09-01T16:37:40.783Z,101653.63
2022-09-01T16:40:31.112Z,101664.06
2022-09-01T16:43:11.457Z,101657.03
2022-09-01T16:45:50.824Z,101657.63
2022-09-01T16:48:26.770Z,101656.91
2022-09-01T16:51:03.167Z,101661.66
2022-09-01T16:53:59.187Z,101660.84
2022-09-01T16:56:33.992Z,101650.47
2022-09-01T16:59:21.083Z,101662.03
2022-09-01T17:02:01.613Z,101655.81
2022-09-01T17:04:39.591Z,101664.91
2022-09-01T17:07:15.501Z,101664.53
2022-09-01T17:09:47.581Z,101663.25
2022-09-01T17:12:27.673Z,101661.53
2022-09-01T17:15:02.160Z,101668.78
2022-09-01T17:17:41.366Z,101658.91
2022-09-01T17:20:12.124Z,101665.19
2022-09-01T17:22:52.252Z,101656.22
2022-09-01T17:25:29.934Z,101655.19
2022-09-01T17:28:07.047Z,101660.47
2022-09-01T17:30:45.810Z,101661.22
2022-09-01T17:33:24.379Z,101663.69
2022-09-01T17:36:11.520Z,101665.19
2022-09-01T17:38:54.227Z,101675.03
2022-09-01T17:41:34.818Z,101670.06
2022-09-01T17:44:19.243Z,101674.09
2022-09-01T17:46:58.302Z,101670.09
2022-09-01T17:49:35.802Z,101685.63
2022-09-01T17:52:15.190Z,101685.72
2022-09-01T17:54:52.387Z,101683.97
2022-09-01T17:57:29.643Z,101687.66
2022-09-01T18:00:03.933Z,101691.13
2022-09-01T18:03:07.457Z,101691.31
2022-09-01T18:05:41.378Z,101687.66
2022-09-01T18:08:30.708Z,101692.19
2022-09-01T18:11:03.685Z,101684.97
2022-09-01T18:13:52.503Z,101695.84
2022-09-01T18:16:26.837Z,101691.50
2022-09-01T18:19:04.205Z,101698.84
2022-09-01T18:21:38.243Z,101689.06
2022-09-01T18:24:15.777Z,101690.00
2022-09-01T18:26:48.441Z,101693.56
2022-09-01T18:29:18.421Z,101694.41
2022-09-01T18:32:19.125Z,101699.84
2022-09-01T18:35:04.050Z,101692.69
2022-09-01T18:37:50.547Z,101692.63
2022-09-01T18:40:28.522Z,101697.06
2022-09-01T18:43:09.425Z,101697.88
2022-09-01T18:45:49.385Z,101704.84
2022-09-01T18:48:37.361Z,101706.50
2022-09-01T18:51:18.137Z,101703.69
2022-09-01T18:53:52.812Z,101701.69
2022-09-01T18:56:34.390Z,101706.00
2022-09-01T18:59:36.503Z,101703.25
2022-09-01T19:02:20.420Z,101714.03
2022-09-01T19:04:54.885Z,101711.06
2022-09-01T19:07:36.840Z,101708.16
2022-09-01T19:10:18.745Z,101709.78
2022-09-01T19:12:58.481Z,101718.38
2022-09-01T19:15:33.638Z,101712.59
2022-09-01T19:18:13.957Z,101711.28
2022-09-01T19:20:51.361Z,101709.22
2022-09-01T19:23:36.275Z,101708.91
2022-09-01T19:26:08.824Z,101712.09
2022-09-01T19:28:43.363Z,101714.38
2022-09-01T19:31:23.726Z,101709.50
2022-09-01T19:33:57.080Z,101710.81
2022-09-01T19:36:34.261Z,101717.44
2022-09-01T19:39:06.835Z,101714.28
2022-09-01T19:41:41.232Z,101714.69
2022-09-01T19:44:22.299Z,101722.25
2022-09-01T19:46:55.531Z,101720.06
2022-09-01T19:49:34.387Z,101718.63
2022-09-01T19:52:10.697Z,101718.03
2022-09-01T19:54:52.136Z,101722.88
2022-09-01T19:57:28.769Z,101710.66
2022-09-01T20:00:05.467Z,101713.69
2022-09-01T20:02:39.414Z,101711.38
2022-09-01T20:05:18.371Z,101716.09
2022-09-01T20:07:54.672Z,101712.81
2022-09-01T20:10:40.196Z,101708.63
2022-09-01T20:13:27.779Z,101715.97
2022-09-01T20:16:06.079Z,101720.63
2022-09-01T20:18:40.190Z,101715.47
2022-09-01T20:21:14.804Z,101714.75
2022-09-01T20:23:56.044Z,101714.91
2022-09-01T20:26:33.704Z,101715.97
2022-09-01T20:29:12.254Z,101708.06
2022-09-01T20:31:46.267Z,101717.22
2022-09-01T20:34:22.223Z,101713.75
2022-09-01T20:36:54.478Z,101716.59
2022-09-01T20:39:50.237Z,101714.94
2022-09-01T20:42:34.702Z,101718.66
2022-09-01T20:45:10.805Z,101727.72
2022-09-01T20:47:39.871Z,101722.53
2022-09-01T20:50:14.561Z,101723.69
2022-09-01T20:52:56.708Z,101730.13
2022-09-01T20:55:31.271Z,101718.72
2022-09-01T20:58:08.344Z,101730.53
2022-09-01T21:00:45.769Z,101723.50
2022-09-01T21:03:22.299Z,101722.75
2022-09-01T21:06:15.758Z,101719.31
2022-09-01T21:08:50.111Z,101714.97
2022-09-01T21:11:29.948Z,101724.03
2022-09-01T21:14:13.927Z,101723.31
2022-09-01T21:16:52.873Z,101720.78
2022-09-01T21:19:29.482Z,101723.66
2022-09-01T21:22:05.530Z,101721.94
2022-09-01T21:24:35.447Z,101724.66
2022-09-01T21:27:09.454Z,101728.25
2022-09-01T21:29:53.713Z,101715.03
2022-09-01T21:32:23.500Z,101717.78
2022-09-01T21:34:54.144Z,101717.84
2022-09-01T21:37:24.345Z,101714.44
2022-09-01T21:39:54.246Z,101720.75
2022-09-01T21:42:25.272Z,101718.22
2022-09-01T21:44:57.039Z,101726.31
2022-09-01T21:47:27.494Z,101716.63
2022-09-01T21:49:56.880Z,101711.38
2022-09-01T21:52:26.119Z,101714.09
2022-09-01T21:54:55.302Z,101711.44
2022-09-01T21:57:24.480Z,101713.31
2022-09-01T21:59:55.092Z,101713.41
2022-09-01T22:02:28.441Z,101713.50
2022-09-01T22:04:57.911Z,101719.88
2022-09-01T22:07:26.959Z,101720.88
2022-09-01T22:09:57.775Z,101716.59
2022-09-01T22:12:27.019Z,101722.00
2022-09-01T22:14:57.336Z,101718.53
2022-09-01T22:17:27.213Z,101712.34
2022-09-01T22:19:56.384Z,101717.75
2022-09-01T22:22:25.777Z,101723.13
2022-09-01T22:24:54.723Z,101725.88
2022-09-01T22:27:23.965Z,101730.41
2022-09-01T22:29:53.255Z,101732.25
2022-09-01T22:32:26.910Z,101726.94
2022-09-01T22:34:59.190Z,101728.78
2022-09-01T22:37:28.151Z,101732.47
2022-09-01T22:39:57.204Z,101726.31
2022-09-01T22:42:26.412Z,101721.94
2022-09-01T22:44:55.550Z,101716.63
2022-09-01T22:47:25.933Z,101717.56
2022-09-01T22:49:56.170Z,101715.78
2022-09-01T22:52:25.528Z,101718.47
2022-09-01T22:54:54.520Z,101724.75
2022-09-01T22:57:23.743Z,101718.56
2022-09-01T22:59:52.747Z,101710.59
2022-09-01T23:02:21.928Z,101716.91
2022-09-01T23:04:52.859Z,101713.44
2022-09-01T23:07:21.848Z,101728.69
2022-09-01T23:09:50.899Z,101726.09
2022-09-01T23:12:20.490Z,101719.00
2022-09-01T23:14:49.759Z,101712.84
2022-09-01T23:17:18.887Z,101714.69
2022-09-01T23:19:48.383Z,101712.84
2022-09-01T23:22:19.050Z,101715.53
2022-09-01T23:24:47.955Z,101715.50
2022-09-01T23:27:17.361Z,101712.84
2022-09-01T23:29:46.322Z,101707.59
2022-09-01T23:32:15.463Z,101706.75
2022-09-01T23:34:44.819Z,101710.34
2022-09-01T23:37:13.907Z,101714.88
2022-09-01T23:39:44.581Z,101714.00
2022-09-01T23:42:13.879Z,101719.38
2022-09-01T23:44:42.851Z,101722.94
2022-09-01T23:47:12.043Z,101722.06
2022-09-01T23:49:41.687Z,101710.47
2022-09-01T23:52:11.175Z,101706.91
2022-09-01T23:54:40.289Z,101708.75
2022-09-01T23:57:11.731Z,101704.25
2022-09-01T23:59:41.077Z,101713.19
